sensor_id;sensor_type;location;lat;lon;timestamp;P1;durP1;ratioP1;P2;durP2;ratioP2
40755;SDS011;26461;45.630;9.418;2023-08-08T00:00:08;1.40;;;1.20;;
40755;SDS011;26461;45.630;9.418;2023-08-08T00:03:19;1.60;;;1.03;;
40755;SDS011;26461;45.630;9.418;2023-08-08T00:06:25;1.30;;;1.17;;
40755;SDS011;26461;45.630;9.418;2023-08-08T00:09:35;1.10;;;1.00;;
40755;SDS011;26461;45.630;9.418;2023-08-08T00:12:45;1.40;;;1.37;;
40755;SDS011;26461;45.630;9.418;2023-08-08T00:15:55;1.57;;;1.30;;
40755;SDS011;26461;45.630;9.418;2023-08-08T00:19:06;1.57;;;1.17;;
40755;SDS011;26461;45.630;9.418;2023-08-08T00:22:16;2.63;;;1.40;;
40755;SDS011;26461;45.630;9.418;2023-08-08T00:25:26;1.90;;;1.60;;
40755;SDS011;26461;45.630;9.418;2023-08-08T00:28:32;2.07;;;1.40;;
40755;SDS011;26461;45.630;9.418;2023-08-08T00:31:42;1.70;;;1.23;;
40755;SDS011;26461;45.630;9.418;2023-08-08T00:34:53;2.73;;;1.50;;
40755;SDS011;26461;45.630;9.418;2023-08-08T00:38:03;1.37;;;1.33;;
40755;SDS011;26461;45.630;9.418;2023-08-08T00:41:08;1.37;;;1.00;;
40755;SDS011;26461;45.630;9.418;2023-08-08T00:44:14;1.73;;;1.47;;
40755;SDS011;26461;45.630;9.418;2023-08-08T00:47:20;1.83;;;1.53;;
40755;SDS011;26461;45.630;9.418;2023-08-08T00:50:26;2.33;;;1.53;;
40755;SDS011;26461;45.630;9.418;2023-08-08T00:53:36;1.73;;;1.30;;
40755;SDS011;26461;45.630;9.418;2023-08-08T00:56:42;1.40;;;1.10;;
40755;SDS011;26461;45.630;9.418;2023-08-08T00:59:47;1.33;;;1.30;;
40755;SDS011;26461;45.630;9.418;2023-08-08T01:02:58;1.67;;;0.90;;
40755;SDS011;26461;45.630;9.418;2023-08-08T01:06:05;1.40;;;1.10;;
40755;SDS011;26461;45.630;9.418;2023-08-08T01:09:20;1.33;;;1.13;;
40755;SDS011;26461;45.630;9.418;2023-08-08T01:12:36;1.60;;;1.20;;
40755;SDS011;26461;45.630;9.418;2023-08-08T01:15:49;2.90;;;1.20;;
40755;SDS011;26461;45.630;9.418;2023-08-08T01:18:59;1.50;;;1.30;;
40755;SDS011;26461;45.630;9.418;2023-08-08T01:22:14;1.20;;;1.10;;
40755;SDS011;26461;45.630;9.418;2023-08-08T01:25:32;1.73;;;1.50;;
40755;SDS011;26461;45.630;9.418;2023-08-08T01:28:38;1.90;;;1.50;;
40755;SDS011;26461;45.630;9.418;2023-08-08T01:31:43;1.77;;;1.47;;
40755;SDS011;26461;45.630;9.418;2023-08-08T01:34:53;1.70;;;1.30;;
40755;SDS011;26461;45.630;9.418;2023-08-08T01:38:00;2.20;;;1.70;;
40755;SDS011;26461;45.630;9.418;2023-08-08T01:41:32;1.90;;;1.17;;
40755;SDS011;26461;45.630;9.418;2023-08-08T01:44:38;1.53;;;1.10;;
40755;SDS011;26461;45.630;9.418;2023-08-08T01:47:51;1.30;;;1.00;;
40755;SDS011;26461;45.630;9.418;2023-08-08T01:50:56;1.27;;;1.17;;
40755;SDS011;26461;45.630;9.418;2023-08-08T01:54:02;2.23;;;1.77;;
40755;SDS011;26461;45.630;9.418;2023-08-08T01:57:13;1.23;;;1.13;;
40755;SDS011;26461;45.630;9.418;2023-08-08T02:00:23;1.50;;;1.10;;
40755;SDS011;26461;45.630;9.418;2023-08-08T02:03:31;1.20;;;1.00;;
40755;SDS011;26461;45.630;9.418;2023-08-08T02:06:36;2.00;;;1.10;;
40755;SDS011;26461;45.630;9.418;2023-08-08T02:09:46;1.40;;;1.20;;
40755;SDS011;26461;45.630;9.418;2023-08-08T02:12:51;1.33;;;1.30;;
40755;SDS011;26461;45.630;9.418;2023-08-08T02:15:56;1.83;;;1.43;;
40755;SDS011;26461;45.630;9.418;2023-08-08T02:19:01;1.20;;;1.10;;
40755;SDS011;26461;45.630;9.418;2023-08-08T02:22:07;1.40;;;1.20;;
40755;SDS011;26461;45.630;9.418;2023-08-08T02:25:18;2.20;;;1.33;;
40755;SDS011;26461;45.630;9.418;2023-08-08T02:28:31;1.20;;;1.13;;
40755;SDS011;26461;45.630;9.418;2023-08-08T02:31:37;1.90;;;1.37;;
40755;SDS011;26461;45.630;9.418;2023-08-08T02:34:42;1.23;;;1.10;;
40755;SDS011;26461;45.630;9.418;2023-08-08T02:37:52;1.33;;;1.20;;
40755;SDS011;26461;45.630;9.418;2023-08-08T02:41:02;1.47;;;1.30;;
40755;SDS011;26461;45.630;9.418;2023-08-08T02:44:13;1.30;;;1.20;;
40755;SDS011;26461;45.630;9.418;2023-08-08T02:47:23;2.07;;;1.40;;
40755;SDS011;26461;45.630;9.418;2023-08-08T02:50:34;1.30;;;1.20;;
40755;SDS011;26461;45.630;9.418;2023-08-08T02:53:45;1.80;;;1.10;;
40755;SDS011;26461;45.630;9.418;2023-08-08T02:56:55;1.30;;;1.17;;
40755;SDS011;26461;45.630;9.418;2023-08-08T03:00:01;1.70;;;1.30;;
40755;SDS011;26461;45.630;9.418;2023-08-08T03:03:14;1.80;;;1.20;;
40755;SDS011;26461;45.630;9.418;2023-08-08T03:06:24;1.77;;;1.07;;
40755;SDS011;26461;45.630;9.418;2023-08-08T03:09:30;1.33;;;1.23;;
40755;SDS011;26461;45.630;9.418;2023-08-08T03:12:41;2.10;;;1.10;;
40755;SDS011;26461;45.630;9.418;2023-08-08T03:15:51;1.60;;;1.50;;
40755;SDS011;26461;45.630;9.418;2023-08-08T03:19:02;1.60;;;1.50;;
40755;SDS011;26461;45.630;9.418;2023-08-08T03:22:14;1.83;;;1.20;;
40755;SDS011;26461;45.630;9.418;2023-08-08T03:25:19;1.10;;;1.00;;
40755;SDS011;26461;45.630;9.418;2023-08-08T03:28:25;1.10;;;1.00;;
40755;SDS011;26461;45.630;9.418;2023-08-08T03:31:35;1.83;;;1.53;;
40755;SDS011;26461;45.630;9.418;2023-08-08T03:34:46;1.80;;;1.23;;
40755;SDS011;26461;45.630;9.418;2023-08-08T03:37:56;3.23;;;1.23;;
40755;SDS011;26461;45.630;9.418;2023-08-08T03:41:01;2.07;;;1.53;;
40755;SDS011;26461;45.630;9.418;2023-08-08T03:44:07;3.13;;;1.70;;
40755;SDS011;26461;45.630;9.418;2023-08-08T03:47:18;1.10;;;1.10;;
40755;SDS011;26461;45.630;9.418;2023-08-08T03:50:24;1.67;;;1.33;;
40755;SDS011;26461;45.630;9.418;2023-08-08T03:53:29;1.40;;;1.02;;
40755;SDS011;26461;45.630;9.418;2023-08-08T03:56:40;1.83;;;1.40;;
40755;SDS011;26461;45.630;9.418;2023-08-08T03:59:51;1.40;;;0.90;;
40755;SDS011;26461;45.630;9.418;2023-08-08T04:02:57;1.33;;;1.00;;
40755;SDS011;26461;45.630;9.418;2023-08-08T04:06:02;1.40;;;1.20;;
40755;SDS011;26461;45.630;9.418;2023-08-08T04:09:10;1.43;;;1.40;;
40755;SDS011;26461;45.630;9.418;2023-08-08T04:12:20;1.73;;;1.30;;
40755;SDS011;26461;45.630;9.418;2023-08-08T04:15:31;1.10;;;1.00;;
40755;SDS011;26461;45.630;9.418;2023-08-08T04:18:41;1.37;;;1.30;;
40755;SDS011;26461;45.630;9.418;2023-08-08T04:21:51;1.50;;;1.30;;
40755;SDS011;26461;45.630;9.418;2023-08-08T04:25:03;1.40;;;1.00;;
40755;SDS011;26461;45.630;9.418;2023-08-08T04:28:13;2.73;;;1.30;;
40755;SDS011;26461;45.630;9.418;2023-08-08T04:31:18;1.17;;;1.10;;
40755;SDS011;26461;45.630;9.418;2023-08-08T04:34:24;1.42;;;1.25;;
40755;SDS011;26461;45.630;9.418;2023-08-08T04:37:30;1.55;;;1.10;;
40755;SDS011;26461;45.630;9.418;2023-08-08T04:40:40;2.73;;;1.20;;
40755;SDS011;26461;45.630;9.418;2023-08-08T04:43:45;1.30;;;1.20;;
40755;SDS011;26461;45.630;9.418;2023-08-08T04:46:55;1.70;;;1.50;;
40755;SDS011;26461;45.630;9.418;2023-08-08T04:50:01;1.53;;;1.20;;
40755;SDS011;26461;45.630;9.418;2023-08-08T04:53:06;1.20;;;1.03;;
40755;SDS011;26461;45.630;9.418;2023-08-08T04:56:11;1.50;;;1.20;;
40755;SDS011;26461;45.630;9.418;2023-08-08T04:59:22;1.77;;;1.10;;
40755;SDS011;26461;45.630;9.418;2023-08-08T05:02:33;2.70;;;1.30;;
40755;SDS011;26461;45.630;9.418;2023-08-08T05:05:44;1.20;;;0.80;;
40755;SDS011;26461;45.630;9.418;2023-08-08T05:08:51;2.07;;;1.20;;
40755;SDS011;26461;45.630;9.418;2023-08-08T05:11:57;2.23;;;1.10;;
40755;SDS011;26461;45.630;9.418;2023-08-08T05:15:07;1.67;;;1.40;;
40755;SDS011;26461;45.630;9.418;2023-08-08T05:18:13;1.83;;;1.70;;
40755;SDS011;26461;45.630;9.418;2023-08-08T05:21:23;2.13;;;1.23;;
40755;SDS011;26461;45.630;9.418;2023-08-08T05:24:28;1.30;;;1.20;;
40755;SDS011;26461;45.630;9.418;2023-08-08T05:27:39;1.20;;;1.20;;
40755;SDS011;26461;45.630;9.418;2023-08-08T05:30:49;1.63;;;1.33;;
40755;SDS011;26461;45.630;9.418;2023-08-08T05:33:59;1.10;;;1.10;;
40755;SDS011;26461;45.630;9.418;2023-08-08T05:37:10;1.50;;;1.20;;
40755;SDS011;26461;45.630;9.418;2023-08-08T05:40:15;1.30;;;1.20;;
40755;SDS011;26461;45.630;9.418;2023-08-08T05:43:25;1.30;;;1.10;;
40755;SDS011;26461;45.630;9.418;2023-08-08T05:46:38;3.33;;;1.40;;
40755;SDS011;26461;45.630;9.418;2023-08-08T05:49:48;1.30;;;1.00;;
40755;SDS011;26461;45.630;9.418;2023-08-08T05:52:59;1.97;;;1.40;;
40755;SDS011;26461;45.630;9.418;2023-08-08T05:56:04;1.77;;;1.20;;
40755;SDS011;26461;45.630;9.418;2023-08-08T05:59:14;1.40;;;1.30;;
40755;SDS011;26461;45.630;9.418;2023-08-08T06:02:24;1.60;;;1.30;;
40755;SDS011;26461;45.630;9.418;2023-08-08T06:05:30;1.40;;;1.30;;
40755;SDS011;26461;45.630;9.418;2023-08-08T06:08:40;1.87;;;1.23;;
40755;SDS011;26461;45.630;9.418;2023-08-08T06:11:50;2.43;;;1.30;;
40755;SDS011;26461;45.630;9.418;2023-08-08T06:15:00;1.80;;;1.13;;
40755;SDS011;26461;45.630;9.418;2023-08-08T06:18:11;2.50;;;1.10;;
40755;SDS011;26461;45.630;9.418;2023-08-08T06:21:20;1.20;;;1.10;;
40755;SDS011;26461;45.630;9.418;2023-08-08T06:24:26;1.37;;;1.30;;
40755;SDS011;26461;45.630;9.418;2023-08-08T06:27:31;2.30;;;1.60;;
40755;SDS011;26461;45.630;9.418;2023-08-08T06:30:36;1.50;;;1.20;;
40755;SDS011;26461;45.630;9.418;2023-08-08T06:33:46;1.70;;;1.43;;
40755;SDS011;26461;45.630;9.418;2023-08-08T06:36:51;1.50;;;1.00;;
40755;SDS011;26461;45.630;9.418;2023-08-08T06:40:01;1.30;;;1.20;;
40755;SDS011;26461;45.630;9.418;2023-08-08T06:43:25;1.50;;;1.20;;
40755;SDS011;26461;45.630;9.418;2023-08-08T06:46:57;1.63;;;1.20;;
40755;SDS011;26461;45.630;9.418;2023-08-08T06:50:07;1.97;;;1.50;;
40755;SDS011;26461;45.630;9.418;2023-08-08T06:53:13;1.30;;;1.10;;
40755;SDS011;26461;45.630;9.418;2023-08-08T06:56:23;2.60;;;1.43;;
40755;SDS011;26461;45.630;9.418;2023-08-08T06:59:35;1.90;;;1.37;;
40755;SDS011;26461;45.630;9.418;2023-08-08T07:02:40;1.70;;;1.40;;
40755;SDS011;26461;45.630;9.418;2023-08-08T07:05:51;1.40;;;1.20;;
40755;SDS011;26461;45.630;9.418;2023-08-08T07:09:02;2.27;;;1.30;;
40755;SDS011;26461;45.630;9.418;2023-08-08T07:12:07;2.40;;;1.13;;
40755;SDS011;26461;45.630;9.418;2023-08-08T07:15:17;6.50;;;1.97;;
40755;SDS011;26461;45.630;9.418;2023-08-08T07:18:29;2.00;;;1.30;;
40755;SDS011;26461;45.630;9.418;2023-08-08T07:21:40;2.13;;;1.30;;
40755;SDS011;26461;45.630;9.418;2023-08-08T07:24:45;1.60;;;1.20;;
40755;SDS011;26461;45.630;9.418;2023-08-08T07:27:50;2.20;;;1.10;;
40755;SDS011;26461;45.630;9.418;2023-08-08T07:31:01;2.60;;;1.43;;
40755;SDS011;26461;45.630;9.418;2023-08-08T07:34:06;1.60;;;1.53;;
40755;SDS011;26461;45.630;9.418;2023-08-08T07:37:11;1.10;;;1.00;;
40755;SDS011;26461;45.630;9.418;2023-08-08T07:40:18;1.20;;;1.00;;
40755;SDS011;26461;45.630;9.418;2023-08-08T07:43:24;1.77;;;1.30;;
40755;SDS011;26461;45.630;9.418;2023-08-08T07:46:29;1.53;;;1.47;;
40755;SDS011;26461;45.630;9.418;2023-08-08T07:49:35;1.20;;;1.03;;
40755;SDS011;26461;45.630;9.418;2023-08-08T07:52:45;1.57;;;1.30;;
40755;SDS011;26461;45.630;9.418;2023-08-08T07:55:55;3.97;;;1.40;;
40755;SDS011;26461;45.630;9.418;2023-08-08T07:59:06;1.40;;;1.10;;
40755;SDS011;26461;45.630;9.418;2023-08-08T08:02:11;1.77;;;1.20;;
40755;SDS011;26461;45.630;9.418;2023-08-08T08:05:16;1.40;;;1.30;;
40755;SDS011;26461;45.630;9.418;2023-08-08T08:08:23;1.40;;;1.07;;
40755;SDS011;26461;45.630;9.418;2023-08-08T08:11:36;1.40;;;1.33;;
40755;SDS011;26461;45.630;9.418;2023-08-08T08:14:42;1.30;;;1.10;;
40755;SDS011;26461;45.630;9.418;2023-08-08T08:17:47;1.87;;;1.27;;
40755;SDS011;26461;45.630;9.418;2023-08-08T08:20:52;1.63;;;1.33;;
40755;SDS011;26461;45.630;9.418;2023-08-08T08:24:02;1.33;;;1.03;;
40755;SDS011;26461;45.630;9.418;2023-08-08T08:27:13;1.53;;;1.30;;
40755;SDS011;26461;45.630;9.418;2023-08-08T08:30:23;1.70;;;1.00;;
40755;SDS011;26461;45.630;9.418;2023-08-08T08:33:35;1.20;;;1.13;;
40755;SDS011;26461;45.630;9.418;2023-08-08T08:36:46;1.60;;;1.20;;
40755;SDS011;26461;45.630;9.418;2023-08-08T08:39:51;1.17;;;1.10;;
40755;SDS011;26461;45.630;9.418;2023-08-08T08:42:56;1.13;;;0.93;;
40755;SDS011;26461;45.630;9.418;2023-08-08T08:46:06;1.50;;;1.10;;
40755;SDS011;26461;45.630;9.418;2023-08-08T08:49:15;1.50;;;1.37;;
40755;SDS011;26461;45.630;9.418;2023-08-08T08:52:23;1.33;;;1.20;;
40755;SDS011;26461;45.630;9.418;2023-08-08T08:55:33;2.33;;;1.17;;
40755;SDS011;26461;45.630;9.418;2023-08-08T08:58:44;1.53;;;1.23;;
40755;SDS011;26461;45.630;9.418;2023-08-08T09:01:50;3.23;;;1.53;;
40755;SDS011;26461;45.630;9.418;2023-08-08T09:04:55;1.20;;;0.93;;
40755;SDS011;26461;45.630;9.418;2023-08-08T09:08:01;1.37;;;1.17;;
40755;SDS011;26461;45.630;9.418;2023-08-08T09:11:12;1.50;;;1.10;;
40755;SDS011;26461;45.630;9.418;2023-08-08T09:14:24;1.60;;;1.30;;
40755;SDS011;26461;45.630;9.418;2023-08-08T09:17:35;2.10;;;1.23;;
40755;SDS011;26461;45.630;9.418;2023-08-08T09:20:50;1.70;;;1.30;;
40755;SDS011;26461;45.630;9.418;2023-08-08T09:24:00;1.20;;;1.20;;
40755;SDS011;26461;45.630;9.418;2023-08-08T09:27:06;10.43;;;1.37;;
40755;SDS011;26461;45.630;9.418;2023-08-08T09:30:17;1.63;;;1.10;;
40755;SDS011;26461;45.630;9.418;2023-08-08T09:33:29;1.50;;;1.20;;
40755;SDS011;26461;45.630;9.418;2023-08-08T09:36:34;2.53;;;1.10;;
40755;SDS011;26461;45.630;9.418;2023-08-08T09:39:39;2.43;;;1.40;;
40755;SDS011;26461;45.630;9.418;2023-08-08T09:42:45;1.40;;;1.17;;
40755;SDS011;26461;45.630;9.418;2023-08-08T09:45:55;1.23;;;1.20;;
40755;SDS011;26461;45.630;9.418;2023-08-08T09:49:05;3.57;;;1.03;;
40755;SDS011;26461;45.630;9.418;2023-08-08T09:52:16;5.70;;;1.40;;
40755;SDS011;26461;45.630;9.418;2023-08-08T09:55:21;1.20;;;0.97;;
40755;SDS011;26461;45.630;9.418;2023-08-08T09:58:28;1.53;;;1.40;;
40755;SDS011;26461;45.630;9.418;2023-08-08T10:01:40;1.80;;;1.30;;
40755;SDS011;26461;45.630;9.418;2023-08-08T10:04:52;1.50;;;1.10;;
40755;SDS011;26461;45.630;9.418;2023-08-08T10:08:11;1.70;;;1.20;;
40755;SDS011;26461;45.630;9.418;2023-08-08T10:11:24;2.03;;;1.20;;
40755;SDS011;26461;45.630;9.418;2023-08-08T10:14:36;1.13;;;1.10;;
40755;SDS011;26461;45.630;9.418;2023-08-08T10:17:43;2.07;;;1.13;;
40755;SDS011;26461;45.630;9.418;2023-08-08T10:20:49;1.30;;;1.27;;
40755;SDS011;26461;45.630;9.418;2023-08-08T10:24:02;2.10;;;1.50;;
40755;SDS011;26461;45.630;9.418;2023-08-08T10:27:26;1.37;;;1.20;;
40755;SDS011;26461;45.630;9.418;2023-08-08T10:30:42;2.83;;;1.37;;
40755;SDS011;26461;45.630;9.418;2023-08-08T10:34:04;1.67;;;1.47;;
40755;SDS011;26461;45.630;9.418;2023-08-08T10:37:16;2.40;;;1.60;;
40755;SDS011;26461;45.630;9.418;2023-08-08T10:40:32;2.53;;;1.20;;
40755;SDS011;26461;45.630;9.418;2023-08-08T10:44:00;1.50;;;1.10;;
40755;SDS011;26461;45.630;9.418;2023-08-08T10:47:06;3.40;;;1.60;;
40755;SDS011;26461;45.630;9.418;2023-08-08T10:50:12;2.37;;;1.40;;
40755;SDS011;26461;45.630;9.418;2023-08-08T10:53:18;1.20;;;1.20;;
40755;SDS011;26461;45.630;9.418;2023-08-08T10:56:28;3.70;;;1.40;;
40755;SDS011;26461;45.630;9.418;2023-08-08T10:59:36;1.50;;;1.30;;
40755;SDS011;26461;45.630;9.418;2023-08-08T11:02:43;1.47;;;1.33;;
40755;SDS011;26461;45.630;9.418;2023-08-08T11:05:54;1.77;;;1.30;;
40755;SDS011;26461;45.630;9.418;2023-08-08T11:09:00;1.70;;;1.30;;
40755;SDS011;26461;45.630;9.418;2023-08-08T11:12:13;1.57;;;1.00;;
40755;SDS011;26461;45.630;9.418;2023-08-08T11:15:24;1.83;;;1.70;;
40755;SDS011;26461;45.630;9.418;2023-08-08T11:18:36;2.57;;;1.77;;
40755;SDS011;26461;45.630;9.418;2023-08-08T11:21:44;1.30;;;1.20;;
40755;SDS011;26461;45.630;9.418;2023-08-08T11:24:50;1.70;;;1.40;;
40755;SDS011;26461;45.630;9.418;2023-08-08T11:27:57;2.30;;;1.50;;
40755;SDS011;26461;45.630;9.418;2023-08-08T11:31:02;2.10;;;1.60;;
40755;SDS011;26461;45.630;9.418;2023-08-08T11:34:08;1.73;;;1.27;;
40755;SDS011;26461;45.630;9.418;2023-08-08T11:37:15;1.60;;;1.40;;
40755;SDS011;26461;45.630;9.418;2023-08-08T11:40:26;3.00;;;2.07;;
40755;SDS011;26461;45.630;9.418;2023-08-08T11:43:38;1.40;;;1.37;;
40755;SDS011;26461;45.630;9.418;2023-08-08T11:46:50;1.70;;;1.67;;
40755;SDS011;26461;45.630;9.418;2023-08-08T11:50:00;3.50;;;2.03;;
40755;SDS011;26461;45.630;9.418;2023-08-08T11:53:12;1.70;;;1.27;;
40755;SDS011;26461;45.630;9.418;2023-08-08T11:56:21;1.53;;;1.40;;
40755;SDS011;26461;45.630;9.418;2023-08-08T11:59:31;3.10;;;1.70;;
40755;SDS011;26461;45.630;9.418;2023-08-08T12:02:36;1.57;;;1.47;;
40755;SDS011;26461;45.630;9.418;2023-08-08T12:05:48;1.27;;;1.17;;
40755;SDS011;26461;45.630;9.418;2023-08-08T12:08:54;1.77;;;1.30;;
40755;SDS011;26461;45.630;9.418;2023-08-08T12:12:04;3.30;;;1.53;;
40755;SDS011;26461;45.630;9.418;2023-08-08T12:15:14;2.90;;;1.67;;
40755;SDS011;26461;45.630;9.418;2023-08-08T12:18:19;1.50;;;1.30;;
40755;SDS011;26461;45.630;9.418;2023-08-08T12:21:30;2.37;;;2.17;;
40755;SDS011;26461;45.630;9.418;2023-08-08T12:24:42;2.17;;;1.67;;
40755;SDS011;26461;45.630;9.418;2023-08-08T12:27:52;3.00;;;1.63;;
40755;SDS011;26461;45.630;9.418;2023-08-08T12:30:59;3.70;;;1.60;;
40755;SDS011;26461;45.630;9.418;2023-08-08T12:34:05;2.30;;;1.70;;
40755;SDS011;26461;45.630;9.418;2023-08-08T12:37:15;2.90;;;1.90;;
40755;SDS011;26461;45.630;9.418;2023-08-08T12:40:26;2.10;;;1.77;;
40755;SDS011;26461;45.630;9.418;2023-08-08T12:43:36;1.90;;;1.50;;
40755;SDS011;26461;45.630;9.418;2023-08-08T12:46:41;2.90;;;1.70;;
40755;SDS011;26461;45.630;9.418;2023-08-08T12:49:46;1.70;;;1.50;;
40755;SDS011;26461;45.630;9.418;2023-08-08T12:52:57;2.13;;;1.97;;
40755;SDS011;26461;45.630;9.418;2023-08-08T12:56:02;2.10;;;1.80;;
40755;SDS011;26461;45.630;9.418;2023-08-08T12:59:08;2.57;;;2.13;;
40755;SDS011;26461;45.630;9.418;2023-08-08T13:02:18;2.33;;;1.83;;
40755;SDS011;26461;45.630;9.418;2023-08-08T13:05:29;2.60;;;2.03;;
40755;SDS011;26461;45.630;9.418;2023-08-08T13:08:34;2.20;;;1.57;;
40755;SDS011;26461;45.630;9.418;2023-08-08T13:11:39;1.70;;;1.47;;
40755;SDS011;26461;45.630;9.418;2023-08-08T13:14:50;2.33;;;2.13;;
40755;SDS011;26461;45.630;9.418;2023-08-08T13:17:55;3.20;;;1.53;;
40755;SDS011;26461;45.630;9.418;2023-08-08T13:21:00;2.47;;;2.20;;
40755;SDS011;26461;45.630;9.418;2023-08-08T13:24:06;1.97;;;1.63;;
40755;SDS011;26461;45.630;9.418;2023-08-08T13:27:13;2.30;;;1.90;;
40755;SDS011;26461;45.630;9.418;2023-08-08T13:30:18;2.13;;;1.40;;
40755;SDS011;26461;45.630;9.418;2023-08-08T13:33:31;2.47;;;2.33;;
40755;SDS011;26461;45.630;9.418;2023-08-08T13:36:41;1.90;;;1.50;;
40755;SDS011;26461;45.630;9.418;2023-08-08T13:39:51;1.90;;;1.40;;
40755;SDS011;26461;45.630;9.418;2023-08-08T13:43:20;2.40;;;1.50;;
40755;SDS011;26461;45.630;9.418;2023-08-08T13:46:30;2.37;;;2.00;;
40755;SDS011;26461;45.630;9.418;2023-08-08T13:49:35;2.20;;;1.60;;
40755;SDS011;26461;45.630;9.418;2023-08-08T13:52:41;1.80;;;1.70;;
40755;SDS011;26461;45.630;9.418;2023-08-08T13:55:51;2.67;;;1.97;;
40755;SDS011;26461;45.630;9.418;2023-08-08T13:59:01;6.33;;;2.00;;
40755;SDS011;26461;45.630;9.418;2023-08-08T14:02:11;2.30;;;2.20;;
40755;SDS011;26461;45.630;9.418;2023-08-08T14:05:16;2.97;;;1.93;;
40755;SDS011;26461;45.630;9.418;2023-08-08T14:08:22;2.47;;;1.57;;
40755;SDS011;26461;45.630;9.418;2023-08-08T14:11:32;3.20;;;1.57;;
40755;SDS011;26461;45.630;9.418;2023-08-08T14:14:37;2.10;;;1.90;;
40755;SDS011;26461;45.630;9.418;2023-08-08T14:17:47;2.30;;;2.10;;
40755;SDS011;26461;45.630;9.418;2023-08-08T14:20:52;2.87;;;2.00;;
40755;SDS011;26461;45.630;9.418;2023-08-08T14:24:03;3.00;;;1.93;;
40755;SDS011;26461;45.630;9.418;2023-08-08T14:27:13;2.13;;;1.83;;
40755;SDS011;26461;45.630;9.418;2023-08-08T14:30:18;4.40;;;2.40;;
40755;SDS011;26461;45.630;9.418;2023-08-08T14:33:27;2.07;;;1.73;;
40755;SDS011;26461;45.630;9.418;2023-08-08T14:36:32;3.00;;;2.10;;
40755;SDS011;26461;45.630;9.418;2023-08-08T14:39:38;2.83;;;1.40;;
40755;SDS011;26461;45.630;9.418;2023-08-08T14:42:43;1.90;;;1.73;;
40755;SDS011;26461;45.630;9.418;2023-08-08T14:45:53;2.20;;;2.00;;
40755;SDS011;26461;45.630;9.418;2023-08-08T14:48:59;2.20;;;1.40;;
40755;SDS011;26461;45.630;9.418;2023-08-08T14:52:04;1.90;;;1.90;;
40755;SDS011;26461;45.630;9.418;2023-08-08T14:55:14;2.00;;;1.60;;
40755;SDS011;26461;45.630;9.418;2023-08-08T14:58:28;1.47;;;1.40;;
40755;SDS011;26461;45.630;9.418;2023-08-08T15:01:34;2.57;;;1.63;;
40755;SDS011;26461;45.630;9.418;2023-08-08T15:04:44;1.60;;;1.50;;
40755;SDS011;26461;45.630;9.418;2023-08-08T15:07:50;2.13;;;1.77;;
40755;SDS011;26461;45.630;9.418;2023-08-08T15:11:00;2.70;;;1.73;;
40755;SDS011;26461;45.630;9.418;2023-08-08T15:14:06;1.70;;;1.60;;
40755;SDS011;26461;45.630;9.418;2023-08-08T15:17:10;2.27;;;1.93;;
40755;SDS011;26461;45.630;9.418;2023-08-08T15:20:15;2.97;;;1.87;;
40755;SDS011;26461;45.630;9.418;2023-08-08T15:23:27;1.87;;;1.50;;
40755;SDS011;26461;45.630;9.418;2023-08-08T15:26:32;2.90;;;1.80;;
40755;SDS011;26461;45.630;9.418;2023-08-08T15:29:37;1.60;;;1.50;;
40755;SDS011;26461;45.630;9.418;2023-08-08T15:32:48;1.97;;;1.47;;
40755;SDS011;26461;45.630;9.418;2023-08-08T15:35:58;2.23;;;1.67;;
40755;SDS011;26461;45.630;9.418;2023-08-08T15:39:03;2.47;;;1.80;;
40755;SDS011;26461;45.630;9.418;2023-08-08T15:42:08;1.73;;;1.63;;
40755;SDS011;26461;45.630;9.418;2023-08-08T15:45:13;2.27;;;1.30;;
40755;SDS011;26461;45.630;9.418;2023-08-08T15:48:42;1.63;;;1.50;;
40755;SDS011;26461;45.630;9.418;2023-08-08T15:51:47;2.00;;;1.80;;
40755;SDS011;26461;45.630;9.418;2023-08-08T15:54:57;1.80;;;1.73;;
40755;SDS011;26461;45.630;9.418;2023-08-08T15:58:07;2.93;;;2.13;;
40755;SDS011;26461;45.630;9.418;2023-08-08T16:01:12;1.90;;;1.60;;
40755;SDS011;26461;45.630;9.418;2023-08-08T16:04:17;2.43;;;1.87;;
40755;SDS011;26461;45.630;9.418;2023-08-08T16:07:23;1.93;;;1.80;;
40755;SDS011;26461;45.630;9.418;2023-08-08T16:10:33;2.00;;;1.80;;
40755;SDS011;26461;45.630;9.418;2023-08-08T16:13:43;1.90;;;1.60;;
40755;SDS011;26461;45.630;9.418;2023-08-08T16:16:53;2.50;;;2.30;;
40755;SDS011;26461;45.630;9.418;2023-08-08T16:19:58;1.60;;;1.50;;
40755;SDS011;26461;45.630;9.418;2023-08-08T16:23:09;3.63;;;2.30;;
40755;SDS011;26461;45.630;9.418;2023-08-08T16:26:19;4.70;;;2.00;;
40755;SDS011;26461;45.630;9.418;2023-08-08T16:29:25;2.47;;;1.90;;
40755;SDS011;26461;45.630;9.418;2023-08-08T16:32:35;2.03;;;1.50;;
40755;SDS011;26461;45.630;9.418;2023-08-08T16:35:41;2.90;;;2.10;;
40755;SDS011;26461;45.630;9.418;2023-08-08T16:38:46;1.83;;;1.73;;
40755;SDS011;26461;45.630;9.418;2023-08-08T16:41:56;1.73;;;1.70;;
40755;SDS011;26461;45.630;9.418;2023-08-08T16:45:04;1.87;;;1.77;;
40755;SDS011;26461;45.630;9.418;2023-08-08T16:48:09;2.30;;;1.83;;
40755;SDS011;26461;45.630;9.418;2023-08-08T16:51:20;2.00;;;1.80;;
40755;SDS011;26461;45.630;9.418;2023-08-08T16:54:25;2.27;;;2.03;;
40755;SDS011;26461;45.630;9.418;2023-08-08T16:57:39;2.40;;;1.90;;
40755;SDS011;26461;45.630;9.418;2023-08-08T17:00:44;1.77;;;1.67;;
40755;SDS011;26461;45.630;9.418;2023-08-08T17:03:54;5.07;;;1.77;;
40755;SDS011;26461;45.630;9.418;2023-08-08T17:07:04;2.37;;;1.73;;
40755;SDS011;26461;45.630;9.418;2023-08-08T17:10:14;3.83;;;2.10;;
40755;SDS011;26461;45.630;9.418;2023-08-08T17:13:20;2.70;;;1.60;;
40755;SDS011;26461;45.630;9.418;2023-08-08T17:16:30;2.53;;;1.37;;
40755;SDS011;26461;45.630;9.418;2023-08-08T17:19:40;2.10;;;1.87;;
40755;SDS011;26461;45.630;9.418;2023-08-08T17:22:46;1.83;;;1.70;;
40755;SDS011;26461;45.630;9.418;2023-08-08T17:25:51;3.00;;;1.80;;
40755;SDS011;26461;45.630;9.418;2023-08-08T17:28:56;2.40;;;2.03;;
40755;SDS011;26461;45.630;9.418;2023-08-08T17:32:02;1.93;;;1.90;;
40755;SDS011;26461;45.630;9.418;2023-08-08T17:35:07;1.70;;;1.63;;
40755;SDS011;26461;45.630;9.418;2023-08-08T17:38:13;2.70;;;1.70;;
40755;SDS011;26461;45.630;9.418;2023-08-08T17:41:23;1.90;;;1.70;;
40755;SDS011;26461;45.630;9.418;2023-08-08T17:44:28;1.87;;;1.80;;
40755;SDS011;26461;45.630;9.418;2023-08-08T17:47:34;2.20;;;2.00;;
40755;SDS011;26461;45.630;9.418;2023-08-08T17:50:44;2.50;;;2.30;;
40755;SDS011;26461;45.630;9.418;2023-08-08T17:53:54;2.00;;;1.90;;
40755;SDS011;26461;45.630;9.418;2023-08-08T17:56:59;2.00;;;1.70;;
40755;SDS011;26461;45.630;9.418;2023-08-08T18:00:10;2.27;;;1.70;;
40755;SDS011;26461;45.630;9.418;2023-08-08T18:03:21;1.80;;;1.70;;
40755;SDS011;26461;45.630;9.418;2023-08-08T18:06:31;2.40;;;1.90;;
40755;SDS011;26461;45.630;9.418;2023-08-08T18:09:42;2.23;;;1.60;;
40755;SDS011;26461;45.630;9.418;2023-08-08T18:12:55;2.00;;;1.80;;
40755;SDS011;26461;45.630;9.418;2023-08-08T18:16:00;4.40;;;2.13;;
40755;SDS011;26461;45.630;9.418;2023-08-08T18:19:10;5.50;;;1.80;;
40755;SDS011;26461;45.630;9.418;2023-08-08T18:22:16;4.53;;;2.03;;
40755;SDS011;26461;45.630;9.418;2023-08-08T18:25:22;3.27;;;1.87;;
40755;SDS011;26461;45.630;9.418;2023-08-08T18:28:32;2.37;;;2.07;;
40755;SDS011;26461;45.630;9.418;2023-08-08T18:31:42;4.90;;;2.13;;
40755;SDS011;26461;45.630;9.418;2023-08-08T18:34:48;2.33;;;2.10;;
40755;SDS011;26461;45.630;9.418;2023-08-08T18:37:58;3.10;;;2.30;;
40755;SDS011;26461;45.630;9.418;2023-08-08T18:41:08;3.80;;;2.30;;
40755;SDS011;26461;45.630;9.418;2023-08-08T18:44:13;2.90;;;1.60;;
40755;SDS011;26461;45.630;9.418;2023-08-08T18:47:23;2.27;;;1.70;;
40755;SDS011;26461;45.630;9.418;2023-08-08T18:50:33;2.20;;;2.00;;
40755;SDS011;26461;45.630;9.418;2023-08-08T18:53:38;2.30;;;2.10;;
40755;SDS011;26461;45.630;9.418;2023-08-08T18:56:48;2.27;;;1.50;;